sensor_id;sensor_type;location;lat;lon;timestamp;pressure;altitude;pressure_sealevel;temperature;humidity
7335;BME280;3708;42.632;23.378;2023-04-28T00:00:31;94515.59;;;7.93;42.54
7335;BME280;3708;42.632;23.378;2023-04-28T00:02:58;94507.75;;;8.29;42.28
7335;BME280;3708;42.632;23.378;2023-04-28T00:05:24;94505.78;;;8.12;42.46
7335;BME280;3708;42.632;23.378;2023-04-28T00:07:51;94508.38;;;8.12;42.88
7335;BME280;3708;42.632;23.378;2023-04-28T00:10:19;94511.72;;;8.26;42.51
7335;BME280;3708;42.632;23.378;2023-04-28T00:12:46;94506.50;;;7.68;43.62
7335;BME280;3708;42.632;23.378;2023-04-28T00:15:13;94507.50;;;7.81;43.52
7335;BME280;3708;42.632;23.378;2023-04-28T00:17:40;94516.28;;;7.85;43.42
7335;BME280;3708;42.632;23.378;2023-04-28T00:20:08;94519.38;;;7.87;43.22
7335;BME280;3708;42.632;23.378;2023-04-28T00:22:35;94512.28;;;8.01;43.47
7335;BME280;3708;42.632;23.378;2023-04-28T00:25:02;94508.59;;;7.80;43.27
7335;BME280;3708;42.632;23.378;2023-04-28T00:27:31;94503.84;;;7.82;43.05
7335;BME280;3708;42.632;23.378;2023-04-28T00:29:58;94513.97;;;8.19;42.56
7335;BME280;3708;42.632;23.378;2023-04-28T00:32:25;94514.06;;;7.43;43.60
7335;BME280;3708;42.632;23.378;2023-04-28T00:34:52;94513.28;;;7.42;44.39
7335;BME280;3708;42.632;23.378;2023-04-28T00:37:19;94512.25;;;7.79;43.38
7335;BME280;3708;42.632;23.378;2023-04-28T00:39:45;94517.00;;;7.77;43.84
7335;BME280;3708;42.632;23.378;2023-04-28T00:42:12;94528.13;;;7.69;44.02
7335;BME280;3708;42.632;23.378;2023-04-28T00:44:41;94522.47;;;7.89;42.87
7335;BME280;3708;42.632;23.378;2023-04-28T00:47:08;94538.56;;;7.42;43.51
7335;BME280;3708;42.632;23.378;2023-04-28T00:49:35;94520.16;;;6.98;44.91
7335;BME280;3708;42.632;23.378;2023-04-28T00:52:05;94522.19;;;7.28;44.68
7335;BME280;3708;42.632;23.378;2023-04-28T00:54:32;94524.88;;;7.23;45.18
7335;BME280;3708;42.632;23.378;2023-04-28T00:57:00;94534.56;;;7.22;44.92
7335;BME280;3708;42.632;23.378;2023-04-28T00:59:29;94526.41;;;6.97;45.32
7335;BME280;3708;42.632;23.378;2023-04-28T01:01:58;94524.31;;;7.26;45.10
7335;BME280;3708;42.632;23.378;2023-04-28T01:04:26;94527.97;;;7.38;44.97
7335;BME280;3708;42.632;23.378;2023-04-28T01:06:54;94544.75;;;6.91;45.80
7335;BME280;3708;42.632;23.378;2023-04-28T01:09:21;94542.69;;;6.61;45.82
7335;BME280;3708;42.632;23.378;2023-04-28T01:11:48;94543.56;;;6.70;45.67
7335;BME280;3708;42.632;23.378;2023-04-28T01:14:15;94541.97;;;6.56;45.82
7335;BME280;3708;42.632;23.378;2023-04-28T01:16:42;94535.88;;;7.06;45.51
7335;BME280;3708;42.632;23.378;2023-04-28T01:19:18;94533.19;;;7.25;44.67
7335;BME280;3708;42.632;23.378;2023-04-28T01:21:46;94537.25;;;7.17;44.94
7335;BME280;3708;42.632;23.378;2023-04-28T01:24:14;94544.00;;;7.05;45.13
7335;BME280;3708;42.632;23.378;2023-04-28T01:26:41;94538.13;;;7.13;44.89
7335;BME280;3708;42.632;23.378;2023-04-28T01:29:08;94539.81;;;6.76;45.46
7335;BME280;3708;42.632;23.378;2023-04-28T01:31:35;94558.69;;;6.36;45.82
7335;BME280;3708;42.632;23.378;2023-04-28T01:34:02;94542.53;;;7.12;44.46
7335;BME280;3708;42.632;23.378;2023-04-28T01:36:29;94551.44;;;7.11;44.34
7335;BME280;3708;42.632;23.378;2023-04-28T01:38:57;94558.34;;;6.75;45.04
7335;BME280;3708;42.632;23.378;2023-04-28T01:41:25;94542.63;;;6.93;44.83
7335;BME280;3708;42.632;23.378;2023-04-28T01:43:52;94541.09;;;6.92;44.04
7335;BME280;3708;42.632;23.378;2023-04-28T01:46:19;94537.22;;;7.04;44.38
7335;BME280;3708;42.632;23.378;2023-04-28T01:48:45;94539.34;;;7.02;44.51
7335;BME280;3708;42.632;23.378;2023-04-28T01:51:13;94549.34;;;6.67;44.61
7335;BME280;3708;42.632;23.378;2023-04-28T01:53:39;94531.41;;;6.79;44.42
7335;BME280;3708;42.632;23.378;2023-04-28T01:56:06;94534.72;;;6.85;44.73
7335;BME280;3708;42.632;23.378;2023-04-28T01:58:34;94538.78;;;6.91;44.62
7335;BME280;3708;42.632;23.378;2023-04-28T02:01:01;94550.53;;;6.43;45.12
7335;BME280;3708;42.632;23.378;2023-04-28T02:03:28;94544.63;;;6.69;45.14
7335;BME280;3708;42.632;23.378;2023-04-28T02:05:55;94545.31;;;6.75;44.59
7335;BME280;3708;42.632;23.378;2023-04-28T02:08:21;94548.56;;;6.53;45.15
7335;BME280;3708;42.632;23.378;2023-04-28T02:10:48;94547.44;;;6.86;44.52
7335;BME280;3708;42.632;23.378;2023-04-28T02:13:15;94540.91;;;7.16;44.61
7335;BME280;3708;42.632;23.378;2023-04-28T02:15:43;94550.94;;;7.36;43.82
7335;BME280;3708;42.632;23.378;2023-04-28T02:18:10;94549.94;;;6.78;44.81
7335;BME280;3708;42.632;23.378;2023-04-28T02:20:37;94551.94;;;6.67;45.03
7335;BME280;3708;42.632;23.378;2023-04-28T02:23:04;94553.25;;;7.38;44.31
7335;BME280;3708;42.632;23.378;2023-04-28T02:25:30;94559.19;;;6.70;44.87
7335;BME280;3708;42.632;23.378;2023-04-28T02:27:57;94561.25;;;6.55;45.36
7335;BME280;3708;42.632;23.378;2023-04-28T02:30:24;94561.88;;;6.65;45.56
7335;BME280;3708;42.632;23.378;2023-04-28T02:32:52;94568.75;;;6.75;45.30
7335;BME280;3708;42.632;23.378;2023-04-28T02:35:19;94562.28;;;6.72;45.70
7335;BME280;3708;42.632;23.378;2023-04-28T02:37:46;94558.59;;;6.60;46.28
7335;BME280;3708;42.632;23.378;2023-04-28T02:40:13;94563.66;;;6.51;46.11
7335;BME280;3708;42.632;23.378;2023-04-28T02:42:40;94561.81;;;6.84;45.69
7335;BME280;3708;42.632;23.378;2023-04-28T02:45:07;94567.13;;;6.79;45.52
7335;BME280;3708;42.632;23.378;2023-04-28T02:47:34;94571.25;;;6.80;45.53
7335;BME280;3708;42.632;23.378;2023-04-28T02:50:03;94564.63;;;7.01;45.51
7335;BME280;3708;42.632;23.378;2023-04-28T02:52:30;94572.50;;;6.82;45.10
7335;BME280;3708;42.632;23.378;2023-04-28T02:54:56;94575.53;;;6.57;46.42
7335;BME280;3708;42.632;23.378;2023-04-28T02:57:23;94569.44;;;6.48;46.07
7335;BME280;3708;42.632;23.378;2023-04-28T02:59:50;94577.97;;;6.67;45.53
7335;BME280;3708;42.632;23.378;2023-04-28T03:02:17;94575.75;;;6.61;46.04
7335;BME280;3708;42.632;23.378;2023-04-28T03:04:45;94576.28;;;6.58;46.05
7335;BME280;3708;42.632;23.378;2023-04-28T03:07:13;94575.91;;;6.51;45.85
7335;BME280;3708;42.632;23.378;2023-04-28T03:09:40;94581.13;;;6.64;45.87
7335;BME280;3708;42.632;23.378;2023-04-28T03:12:07;94580.34;;;6.50;45.78
7335;BME280;3708;42.632;23.378;2023-04-28T03:14:34;94587.72;;;6.75;45.57
7335;BME280;3708;42.632;23.378;2023-04-28T03:17:00;94581.59;;;6.85;45.25
7335;BME280;3708;42.632;23.378;2023-04-28T03:19:27;94580.34;;;6.50;46.03
7335;BME280;3708;42.632;23.378;2023-04-28T03:21:54;94577.38;;;7.03;44.76
7335;BME280;3708;42.632;23.378;2023-04-28T03:24:22;94588.44;;;6.94;44.74
7335;BME280;3708;42.632;23.378;2023-04-28T03:26:49;94601.72;;;6.47;45.52
7335;BME280;3708;42.632;23.378;2023-04-28T03:29:16;94598.59;;;6.96;44.05
7335;BME280;3708;42.632;23.378;2023-04-28T03:31:42;94606.22;;;6.42;44.84
7335;BME280;3708;42.632;23.378;2023-04-28T03:34:09;94603.56;;;6.47;45.10
7335;BME280;3708;42.632;23.378;2023-04-28T03:36:36;94615.06;;;6.59;44.65
7335;BME280;3708;42.632;23.378;2023-04-28T03:39:03;94614.28;;;6.59;44.62
7335;BME280;3708;42.632;23.378;2023-04-28T03:41:31;94621.66;;;6.70;44.41
7335;BME280;3708;42.632;23.378;2023-04-28T03:43:58;94625.16;;;6.79;44.17
7335;BME280;3708;42.632;23.378;2023-04-28T03:46:25;94630.94;;;6.58;44.85
7335;BME280;3708;42.632;23.378;2023-04-28T03:48:52;94629.00;;;6.68;44.69
7335;BME280;3708;42.632;23.378;2023-04-28T03:51:19;94645.34;;;6.69;44.22
7335;BME280;3708;42.632;23.378;2023-04-28T03:53:45;94631.97;;;6.75;44.14
7335;BME280;3708;42.632;23.378;2023-04-28T03:56:12;94647.94;;;6.55;44.49
7335;BME280;3708;42.632;23.378;2023-04-28T03:58:40;94632.22;;;6.60;44.62
7335;BME280;3708;42.632;23.378;2023-04-28T04:01:07;94641.69;;;6.38;44.84
7335;BME280;3708;42.632;23.378;2023-04-28T04:03:34;94640.69;;;6.52;44.66
7335;BME280;3708;42.632;23.378;2023-04-28T04:06:01;94645.25;;;6.42;44.84
7335;BME280;3708;42.632;23.378;2023-04-28T04:08:27;94651.69;;;6.63;44.38
7335;BME280;3708;42.632;23.378;2023-04-28T04:10:54;94657.97;;;6.62;44.07
7335;BME280;3708;42.632;23.378;2023-04-28T04:13:21;94654.84;;;7.11;43.36
7335;BME280;3708;42.632;23.378;2023-04-28T04:15:50;94658.97;;;7.12;43.52
7335;BME280;3708;42.632;23.378;2023-04-28T04:18:18;94662.78;;;6.87;43.15
7335;BME280;3708;42.632;23.378;2023-04-28T04:20:44;94661.84;;;7.56;42.56
7335;BME280;3708;42.632;23.378;2023-04-28T04:23:12;94661.16;;;7.37;42.68
7335;BME280;3708;42.632;23.378;2023-04-28T04:25:38;94669.94;;;7.27;42.31
7335;BME280;3708;42.632;23.378;2023-04-28T04:28:05;94664.97;;;7.12;42.85
7335;BME280;3708;42.632;23.378;2023-04-28T04:30:32;94673.97;;;7.20;42.93
7335;BME280;3708;42.632;23.378;2023-04-28T04:33:00;94662.78;;;6.87;43.45
7335;BME280;3708;42.632;23.378;2023-04-28T04:35:27;94672.56;;;7.41;42.76
7335;BME280;3708;42.632;23.378;2023-04-28T04:37:54;94678.97;;;6.84;43.16
7335;BME280;3708;42.632;23.378;2023-04-28T04:40:21;94676.41;;;6.98;43.32
7335;BME280;3708;42.632;23.378;2023-04-28T04:42:48;94678.81;;;7.40;43.11
7335;BME280;3708;42.632;23.378;2023-04-28T04:45:15;94682.34;;;7.17;43.05
7335;BME280;3708;42.632;23.378;2023-04-28T04:47:42;94675.06;;;7.32;43.09
7335;BME280;3708;42.632;23.378;2023-04-28T04:50:10;94682.53;;;7.07;43.11
7335;BME280;3708;42.632;23.378;2023-04-28T04:52:37;94684.03;;;7.40;42.29
7335;BME280;3708;42.632;23.378;2023-04-28T04:55:05;94687.97;;;7.24;42.65
7335;BME280;3708;42.632;23.378;2023-04-28T04:57:32;94689.38;;;7.03;43.79
7335;BME280;3708;42.632;23.378;2023-04-28T04:59:59;94699.25;;;7.65;42.74
7335;BME280;3708;42.632;23.378;2023-04-28T05:02:25;94693.81;;;7.48;42.86
7335;BME280;3708;42.632;23.378;2023-04-28T05:04:52;94686.84;;;8.11;41.92
7335;BME280;3708;42.632;23.378;2023-04-28T05:07:21;94692.31;;;7.74;41.65
7335;BME280;3708;42.632;23.378;2023-04-28T05:09:47;94700.31;;;8.32;41.26
7335;BME280;3708;42.632;23.378;2023-04-28T05:12:14;94704.63;;;7.68;41.99
7335;BME280;3708;42.632;23.378;2023-04-28T05:14:41;94706.31;;;7.32;42.93
7335;BME280;3708;42.632;23.378;2023-04-28T05:17:08;94700.94;;;7.29;42.44
7335;BME280;3708;42.632;23.378;2023-04-28T05:19:35;94697.53;;;7.42;42.33
7335;BME280;3708;42.632;23.378;2023-04-28T05:22:01;94706.38;;;7.59;42.90
7335;BME280;3708;42.632;23.378;2023-04-28T05:24:30;94702.50;;;7.70;42.02
7335;BME280;3708;42.632;23.378;2023-04-28T05:26:57;94701.53;;;7.66;42.46
7335;BME280;3708;42.632;23.378;2023-04-28T05:29:24;94695.94;;;8.00;42.13
7335;BME280;3708;42.632;23.378;2023-04-28T05:31:51;94696.91;;;7.77;41.97
7335;BME280;3708;42.632;23.378;2023-04-28T05:34:18;94702.03;;;8.09;42.35
7335;BME280;3708;42.632;23.378;2023-04-28T05:36:45;94683.31;;;7.80;42.85
7335;BME280;3708;42.632;23.378;2023-04-28T05:39:11;94692.25;;;7.47;43.57
7335;BME280;3708;42.632;23.378;2023-04-28T05:41:40;94694.09;;;7.87;42.78
7335;BME280;3708;42.632;23.378;2023-04-28T05:44:06;94690.81;;;8.22;42.74
7335;BME280;3708;42.632;23.378;2023-04-28T05:46:33;94704.84;;;8.13;42.92
7335;BME280;3708;42.632;23.378;2023-04-28T05:49:00;94695.66;;;9.00;41.23
7335;BME280;3708;42.632;23.378;2023-04-28T05:51:27;94698.84;;;8.26;42.14
7335;BME280;3708;42.632;23.378;2023-04-28T05:53:54;94711.13;;;8.12;42.86
7335;BME280;3708;42.632;23.378;2023-04-28T05:56:21;94700.03;;;8.06;42.35
7335;BME280;3708;42.632;23.378;2023-04-28T05:58:49;94703.97;;;7.63;42.56
7335;BME280;3708;42.632;23.378;2023-04-28T06:01:16;94711.31;;;7.88;42.83
7335;BME280;3708;42.632;23.378;2023-04-28T06:03:43;94703.31;;;8.25;42.64
7335;BME280;3708;42.632;23.378;2023-04-28T06:06:10;94703.66;;;8.32;42.24
7335;BME280;3708;42.632;23.378;2023-04-28T06:08:37;94701.06;;;8.82;41.57
7335;BME280;3708;42.632;23.378;2023-04-28T06:11:04;94699.78;;;8.43;41.75
7335;BME280;3708;42.632;23.378;2023-04-28T06:13:31;94701.94;;;8.14;41.09
7335;BME280;3708;42.632;23.378;2023-04-28T06:15:59;94692.66;;;8.35;40.71
7335;BME280;3708;42.632;23.378;2023-04-28T06:18:26;94698.38;;;7.97;41.43
7335;BME280;3708;42.632;23.378;2023-04-28T06:20:56;94695.22;;;8.85;40.40
7335;BME280;3708;42.632;23.378;2023-04-28T06:23:23;94696.50;;;8.74;40.60
7335;BME280;3708;42.632;23.378;2023-04-28T06:25:50;94702.34;;;8.71;40.16
7335;BME280;3708;42.632;23.378;2023-04-28T06:28:17;94704.47;;;8.91;40.23
7335;BME280;3708;42.632;23.378;2023-04-28T06:30:44;94707.34;;;8.31;41.13
7335;BME280;3708;42.632;23.378;2023-04-28T06:33:12;94701.16;;;8.77;40.55
7335;BME280;3708;42.632;23.378;2023-04-28T06:35:39;94706.25;;;9.48;39.59
7335;BME280;3708;42.632;23.378;2023-04-28T06:38:06;94715.53;;;9.32;39.05
7335;BME280;3708;42.632;23.378;2023-04-28T06:40:32;94700.75;;;9.58;38.96
7335;BME280;3708;42.632;23.378;2023-04-28T06:42:59;94696.50;;;9.71;38.87
7335;BME280;3708;42.632;23.378;2023-04-28T06:45:26;94699.47;;;9.78;39.10
7335;BME280;3708;42.632;23.378;2023-04-28T06:47:53;94691.53;;;9.08;39.36
7335;BME280;3708;42.632;23.378;2023-04-28T06:50:22;94700.50;;;9.15;38.58
7335;BME280;3708;42.632;23.378;2023-04-28T06:52:49;94697.47;;;8.78;39.88
7335;BME280;3708;42.632;23.378;2023-04-28T06:55:16;94689.56;;;9.36;38.63
7335;BME280;3708;42.632;23.378;2023-04-28T06:57:43;94680.28;;;9.60;37.82
7335;BME280;3708;42.632;23.378;2023-04-28T07:00:11;94684.66;;;9.73;37.70
7335;BME280;3708;42.632;23.378;2023-04-28T07:02:38;94702.59;;;9.27;38.96
7335;BME280;3708;42.632;23.378;2023-04-28T07:05:05;94692.09;;;9.88;37.78
7335;BME280;3708;42.632;23.378;2023-04-28T07:07:35;94701.56;;;10.07;37.09
7335;BME280;3708;42.632;23.378;2023-04-28T07:10:03;94697.97;;;10.42;36.22
7335;BME280;3708;42.632;23.378;2023-04-28T07:12:30;94696.38;;;10.15;37.28
7335;BME280;3708;42.632;23.378;2023-04-28T07:14:57;94687.94;;;10.44;36.81
7335;BME280;3708;42.632;23.378;2023-04-28T07:17:24;94691.38;;;10.70;36.53
7335;BME280;3708;42.632;23.378;2023-04-28T07:19:50;94691.31;;;10.27;36.77
7335;BME280;3708;42.632;23.378;2023-04-28T07:22:17;94689.03;;;10.43;37.02
7335;BME280;3708;42.632;23.378;2023-04-28T07:24:45;94693.94;;;9.88;37.76
7335;BME280;3708;42.632;23.378;2023-04-28T07:27:12;94693.91;;;9.79;37.75
7335;BME280;3708;42.632;23.378;2023-04-28T07:29:39;94704.78;;;9.64;38.49
7335;BME280;3708;42.632;23.378;2023-04-28T07:32:06;94691.16;;;9.84;37.63
7335;BME280;3708;42.632;23.378;2023-04-28T07:34:35;94693.84;;;10.02;37.80
7335;BME280;3708;42.632;23.378;2023-04-28T07:37:02;94690.44;;;10.49;36.92
7335;BME280;3708;42.632;23.378;2023-04-28T07:39:30;94681.78;;;10.48;37.10
7335;BME280;3708;42.632;23.378;2023-04-28T07:41:58;94697.94;;;11.44;35.57
7335;BME280;3708;42.632;23.378;2023-04-28T07:44:25;94694.75;;;11.13;36.00
7335;BME280;3708;42.632;23.378;2023-04-28T07:46:52;94695.38;;;11.19;36.14
7335;BME280;3708;42.632;23.378;2023-04-28T07:49:19;94701.81;;;11.38;35.35
7335;BME280;3708;42.632;23.378;2023-04-28T07:51:46;94692.59;;;11.87;34.66
7335;BME280;3708;42.632;23.378;2023-04-28T07:54:13;94692.38;;;12.59;33.31
7335;BME280;3708;42.632;23.378;2023-04-28T07:56:40;94683.81;;;13.03;33.05
7335;BME280;3708;42.632;23.378;2023-04-28T07:59:08;94684.34;;;12.76;32.67
7335;BME280;3708;42.632;23.378;2023-04-28T08:01:35;94691.88;;;12.57;32.84
7335;BME280;3708;42.632;23.378;2023-04-28T08:04:02;94689.47;;;12.52;33.27
7335;BME280;3708;42.632;23.378;2023-04-28T08:06:29;94691.66;;;13.12;32.04
7335;BME280;3708;42.632;23.378;2023-04-28T08:08:56;94688.06;;;13.49;31.83
7335;BME280;3708;42.632;23.378;2023-04-28T08:11:22;94689.78;;;14.02;30.72
7335;BME280;3708;42.632;23.378;2023-04-28T08:13:49;94691.84;;;13.28;32.15
7335;BME280;3708;42.632;23.378;2023-04-28T08:16:17;94688.34;;;14.05;30.46
7335;BME280;3708;42.632;23.378;2023-04-28T08:18:44;94678.25;;;14.43;29.75
7335;BME280;3708;42.632;23.378;2023-04-28T08:21:11;94678.69;;;14.57;30.36
7335;BME280;3708;42.632;23.378;2023-04-28T08:23:38;94684.56;;;14.78;29.56
7335;BME280;3708;42.632;23.378;2023-04-28T08:26:05;94690.59;;;15.18;29.38
7335;BME280;3708;42.632;23.378;2023-04-28T08:28:32;94688.72;;;15.19;29.35
7335;BME280;3708;42.632;23.378;2023-04-28T08:30:59;94688.00;;;14.06;30.53
7335;BME280;3708;42.632;23.378;2023-04-28T08:33:27;94681.41;;;13.76;30.23
7335;BME280;3708;42.632;23.378;2023-04-28T08:35:54;94683.84;;;14.66;30.00
7335;BME280;3708;42.632;23.378;2023-04-28T08:38:21;94684.84;;;13.44;30.43
7335;BME280;3708;42.632;23.378;2023-04-28T08:40:49;94676.59;;;14.02;29.95
7335;BME280;3708;42.632;23.378;2023-04-28T08:43:16;94683.34;;;13.22;30.63
7335;BME280;3708;42.632;23.378;2023-04-28T08:45:45;94676.81;;;13.28;30.59
7335;BME280;3708;42.632;23.378;2023-04-28T08:48:17;94677.13;;;13.27;30.87
7335;BME280;3708;42.632;23.378;2023-04-28T08:50:50;94675.53;;;14.39;29.84
7335;BME280;3708;42.632;23.378;2023-04-28T08:53:21;94668.56;;;13.74;30.50
7335;BME280;3708;42.632;23.378;2023-04-28T08:55:51;94664.09;;;13.75;29.88
7335;BME280;3708;42.632;23.378;2023-04-28T08:58:21;94667.94;;;13.33;30.72
7335;BME280;3708;42.632;23.378;2023-04-28T09:00:48;94658.63;;;14.16;29.38
7335;BME280;3708;42.632;23.378;2023-04-28T09:03:15;94666.34;;;14.73;28.76
7335;BME280;3708;42.632;23.378;2023-04-28T09:05:42;94666.22;;;13.49;30.10
7335;BME280;3708;42.632;23.378;2023-04-28T09:08:10;94658.38;;;14.21;29.58
7335;BME280;3708;42.632;23.378;2023-04-28T09:10:38;94659.25;;;13.65;30.79
7335;BME280;3708;42.632;23.378;2023-04-28T09:13:05;94658.84;;;13.99;29.73
7335;BME280;3708;42.632;23.378;2023-04-28T09:15:33;94651.59;;;14.44;29.53
7335;BME280;3708;42.632;23.378;2023-04-28T09:18:19;94655.53;;;13.21;30.82
7335;BME280;3708;42.632;23.378;2023-04-28T09:20:46;94646.09;;;13.65;29.90
7335;BME280;3708;42.632;23.378;2023-04-28T09:23:15;94639.19;;;13.60;30.36
7335;BME280;3708;42.632;23.378;2023-04-28T09:25:56;94627.41;;;14.82;29.01
7335;BME280;3708;42.632;23.378;2023-04-28T09:28:24;94635.25;;;15.06;28.64
7335;BME280;3708;42.632;23.378;2023-04-28T09:30:51;94631.06;;;15.05;28.92
7335;BME280;3708;42.632;23.378;2023-04-28T09:33:18;94629.91;;;15.18;28.58
7335;BME280;3708;42.632;23.378;2023-04-28T09:35:46;94636.22;;;15.88;27.66
7335;BME280;3708;42.632;23.378;2023-04-28T09:38:14;94617.84;;;16.11;27.54
7335;BME280;3708;42.632;23.378;2023-04-28T09:40:56;94629.66;;;15.67;28.12
7335;BME280;3708;42.632;23.378;2023-04-28T09:43:27;94631.06;;;16.11;27.62
7335;BME280;3708;42.632;23.378;2023-04-28T09:45:56;94630.38;;;16.30;27.27
7335;BME280;3708;42.632;23.378;2023-04-28T09:48:28;94615.19;;;16.27;27.48
7335;BME280;3708;42.632;23.378;2023-04-28T09:50:55;94610.06;;;16.34;27.63
7335;BME280;3708;42.632;23.378;2023-04-28T09:53:25;94610.97;;;16.41;26.39
7335;BME280;3708;42.632;23.378;2023-04-28T09:55:53;94613.00;;;16.48;26.51
7335;BME280;3708;42.632;23.378;2023-04-28T09:58:20;94602.88;;;16.15;27.34
7335;BME280;3708;42.632;23.378;2023-04-28T10:00:51;94609.03;;;15.72;27.39
7335;BME280;3708;42.632;23.378;2023-04-28T10:03:20;94592.19;;;16.12;28.23
7335;BME280;3708;42.632;23.378;2023-04-28T10:05:47;94603.84;;;15.60;27.07
7335;BME280;3708;42.632;23.378;2023-04-28T10:08:16;94593.75;;;14.91;28.34
7335;BME280;3708;42.632;23.378;2023-04-28T10:10:47;94587.84;;;14.82;27.87
7335;BME280;3708;42.632;23.378;2023-04-28T10:13:15;94584.44;;;13.90;29.37
7335;BME280;3708;42.632;23.378;2023-04-28T10:15:43;94601.94;;;14.46;28.29
7335;BME280;3708;42.632;23.378;2023-04-28T10:18:11;94595.81;;;14.30;28.41
7335;BME280;3708;42.632;23.378;2023-04-28T10:20:38;94596.91;;;15.24;27.75
7335;BME280;3708;42.632;23.378;2023-04-28T10:23:19;94586.78;;;14.83;27.56
7335;BME280;3708;42.632;23.378;2023-04-28T10:25:55;94582.44;;;15.81;26.92
7335;BME280;3708;42.632;23.378;2023-04-28T10:28:24;94578.84;;;15.42;26.96
7335;BME280;3708;42.632;23.378;2023-04-28T10:31:14;94586.75;;;15.11;27.25
7335;BME280;3708;42.632;23.378;2023-04-28T10:33:42;94569.97;;;14.76;28.14
7335;BME280;3708;42.632;23.378;2023-04-28T10:36:09;94577.31;;;15.25;27.96
7335;BME280;3708;42.632;23.378;2023-04-28T10:39:09;94580.78;;;15.29;25.53
7335;BME280;3708;42.632;23.378;2023-04-28T10:41:38;94574.81;;;15.17;27.62
7335;BME280;3708;42.632;23.378;2023-04-28T10:44:41;94567.72;;;15.33;27.69
7335;BME280;3708;42.632;23.378;2023-04-28T10:47:09;94551.34;;;16.44;26.78
7335;BME280;3708;42.632;23.378;2023-04-28T10:50:09;94548.72;;;17.24;25.64
7335;BME280;3708;42.632;23.378;2023-04-28T10:52:49;94552.78;;;17.18;25.46
7335;BME280;3708;42.632;23.378;2023-04-28T10:55:29;94550.75;;;16.16;26.03
7335;BME280;3708;42.632;23.378;2023-04-28T10:58:32;94557.63;;;16.55;26.03
7335;BME280;3708;42.632;23.378;2023-04-28T11:01:23;94550.06;;;17.14;25.25
7335;BME280;3708;42.632;23.378;2023-04-28T11:03:51;94550.91;;;16.57;26.32
7335;BME280;3708;42.632;23.378;2023-04-28T11:06:25;94543.75;;;17.00;25.30
7335;BME280;3708;42.632;23.378;2023-04-28T11:08:53;94538.91;;;17.70;24.16
7335;BME280;3708;42.632;23.378;2023-04-28T11:11:23;94526.91;;;17.53;24.68
7335;BME280;3708;42.632;23.378;2023-04-28T11:13:52;94530.97;;;17.96;24.16
7335;BME280;3708;42.632;23.378;2023-04-28T11:16:22;94534.72;;;18.21;23.38
7335;BME280;3708;42.632;23.378;2023-04-28T11:18:54;94525.03;;;18.98;22.87
7335;BME280;3708;42.632;23.378;2023-04-28T11:21:23;94528.13;;;19.41;22.92
7335;BME280;3708;42.632;23.378;2023-04-28T11:23:51;94530.75;;;18.38;22.55
7335;BME280;3708;42.632;23.378;2023-04-28T11:26:18;94542.06;;;18.05;23.61
7335;BME280;3708;42.632;23.378;2023-04-28T11:28:50;94535.97;;;16.88;24.76
7335;BME280;3708;42.632;23.378;2023-04-28T11:31:19;94527.53;;;17.95;24.12
7335;BME280;3708;42.632;23.378;2023-04-28T11:33:50;94527.16;;;18.23;23.07
7335;BME280;3708;42.632;23.378;2023-04-28T11:36:26;94514.19;;;18.44;23.26
7335;BME280;3708;42.632;23.378;2023-04-28T11:38:53;94514.19;;;18.77;22.68
7335;BME280;3708;42.632;23.378;2023-04-28T11:41:20;94522.09;;;17.36;23.66
7335;BME280;3708;42.632;23.378;2023-04-28T11:43:47;94529.00;;;17.67;23.56
7335;BME280;3708;42.632;23.378;2023-04-28T11:46:20;94519.94;;;17.45;23.84
7335;BME280;3708;42.632;23.378;2023-04-28T11:48:47;94510.88;;;17.46;23.33
7335;BME280;3708;42.632;23.378;2023-04-28T11:51:34;94523.25;;;17.16;23.64
7335;BME280;3708;42.632;23.378;2023-04-28T11:54:03;94509.34;;;17.00;23.20
7335;BME280;3708;42.632;23.378;2023-04-28T11:56:36;94504.81;;;17.45;22.52
7335;BME280;3708;42.632;23.378;2023-04-28T11:59:05;94509.34;;;17.94;22.25
7335;BME280;3708;42.632;23.378;2023-04-28T12:01:43;94489.59;;;18.47;21.49
7335;BME280;3708;42.632;23.378;2023-04-28T12:04:11;94505.34;;;19.03;20.80
7335;BME280;3708;42.632;23.378;2023-04-28T12:06:38;94501.72;;;19.22;20.53
7335;BME280;3708;42.632;23.378;2023-04-28T12:09:16;94500.16;;;17.88;21.37
7335;BME280;3708;42.632;23.378;2023-04-28T12:11:53;94490.59;;;19.06;20.04
7335;BME280;3708;42.632;23.378;2023-04-28T12:14:21;94485.94;;;19.36;20.58
7335;BME280;3708;42.632;23.378;2023-04-28T12:16:50;94478.97;;;20.33;19.50
7335;BME280;3708;42.632;23.378;2023-04-28T12:19:17;94482.63;;;20.07;19.79
7335;BME280;3708;42.632;23.378;2023-04-28T12:21:58;94465.81;;;20.82;19.36
7335;BME280;3708;42.632;23.378;2023-04-28T12:24:26;94480.91;;;19.74;20.23
7335;BME280;3708;42.632;23.378;2023-04-28T12:26:53;94477.31;;;20.11;20.34
7335;BME280;3708;42.632;23.378;2023-04-28T12:29:36;94475.66;;;19.85;21.02
7335;BME280;3708;42.632;23.378;2023-04-28T12:32:06;94474.47;;;20.51;19.65
7335;BME280;3708;42.632;23.378;2023-04-28T12:34:33;94484.88;;;19.47;20.18
7335;BME280;3708;42.632;23.378;2023-04-28T12:37:01;94474.38;;;19.18;20.68
7335;BME280;3708;42.632;23.378;2023-04-28T12:39:30;94462.38;;;19.85;20.55
7335;BME280;3708;42.632;23.378;2023-04-28T12:41:58;94454.75;;;20.63;19.88
7335;BME280;3708;42.632;23.378;2023-04-28T12:44:27;94456.75;;;21.64;19.02
7335;BME280;3708;42.632;23.378;2023-04-28T12:47:00;94460.50;;;20.82;19.63
7335;BME280;3708;42.632;23.378;2023-04-28T12:49:28;94457.91;;;21.42;19.40
7335;BME280;3708;42.632;23.378;2023-04-28T12:51:55;94449.88;;;21.95;19.59
7335;BME280;3708;42.632;23.378;2023-04-28T12:54:22;94453.31;;;21.81;19.39
7335;BME280;3708;42.632;23.378;2023-04-28T12:56:49;94446.44;;;22.88;19.05
7335;BME280;3708;42.632;23.378;2023-04-28T12:59:16;94444.31;;;22.62;19.11
7335;BME280;3708;42.632;23.378;2023-04-28T13:01:43;94450.78;;;22.54;18.77
7335;BME280;3708;42.632;23.378;2023-04-28T13:04:09;94456.22;;;20.53;20.22
7335;BME280;3708;42.632;23.378;2023-04-28T13:06:38;94441.03;;;19.71;20.97
7335;BME280;3708;42.632;23.378;2023-04-28T13:09:08;94458.50;;;19.25;21.31
7335;BME280;3708;42.632;23.378;2023-04-28T13:11:35;94442.25;;;19.88;21.52
7335;BME280;3708;42.632;23.378;2023-04-28T13:14:02;94431.16;;;20.54;21.03
7335;BME280;3708;42.632;23.378;2023-04-28T13:16:29;94427.44;;;21.64;20.12
7335;BME280;3708;42.632;23.378;2023-04-28T13:18:56;94434.31;;;21.41;21.15
7335;BME280;3708;42.632;23.378;2023-04-28T13:21:23;94427.47;;;21.36;20.48
7335;BME280;3708;42.632;23.378;2023-04-28T13:23:52;94430.47;;;20.99;21.02